Time;durP1;ratioP1;P1;durP2;ratioP2;P2;SDS_P1;SDS_P2;PMS_P1;PMS_P2;Temp;Humidity;BMP_temperature;BMP_pressure;BME280_temperature;BME280_humidity;BME280_pressure;Samples;Min_cycle;Max_cycle;Signal;HPM_P1;HPM_P2
2023/07/28 00:01:33;;;;;;;;;;;;;;;14.75;75.51;99615.02;104106;279;97788;-58
2023/07/28 00:04:07;;;;;;;;;;;;;;;14.79;75.30;99616.34;104080;279;121105;-53
2023/07/28 00:06:39;;;;;;;;;;;;;;;14.83;74.95;99615.15;104465;279;105784;-53
2023/07/28 00:09:11;;;;;;;;;;;;;;;14.87;75.25;99612.93;104088;279;113164;-53
2023/07/28 00:11:43;;;;;;;;;;;;;;;14.89;75.06;99618.45;104073;279;94025;-53
2023/07/28 00:14:15;;;;;;;;;;;;;;;14.90;75.13;99616.19;104079;279;97614;-53
2023/07/28 00:16:48;;;;;;;;;;;;;;;14.90;75.21;99614.27;104104;279;121769;-53
2023/07/28 00:19:20;;;;;;;;;;;;;;;14.92;75.08;99608.93;104500;279;105209;-56
2023/07/28 00:21:53;;;;;;;;;;;;;;;14.93;74.95;99604.72;104083;279;114606;-56
2023/07/28 00:24:25;;;;;;;;;;;;;;;14.94;74.73;99605.24;104517;279;94369;-58
2023/07/28 00:26:57;;;;;;;;;;;;;;;14.97;74.78;99603.61;104481;279;96440;-58
2023/07/28 00:29:29;;;;;;;;;;;;;;;14.98;74.65;99600.58;104070;279;121750;-58
2023/07/28 00:32:01;;;;;;;;;;;;;;;14.98;74.46;99601.08;104106;279;105338;-58
2023/07/28 00:34:34;;;;;;;;;;;;;;;15.00;74.47;99599.15;104075;279;114517;-53
2023/07/28 00:37:06;;;;;;;;;;;;;;;15.01;74.58;99599.74;104485;279;94339;-54
2023/07/28 00:39:39;;;;;;;;;;;;;;;15.05;74.22;99596.66;104082;279;97795;-55
2023/07/28 00:42:11;;;;;;;;;;;;;;;15.08;74.42;99592.95;104076;279;121577;-56
2023/07/28 00:44:43;;;;;;;;;;;;;;;15.12;74.32;99586.27;104085;279;110225;-54
2023/07/28 00:47:15;;;;;;;;;;;;;;;15.18;74.43;99585.54;104088;279;114112;-54
2023/07/28 00:49:48;;;;;;;;;;;;;;;15.24;74.11;99585.55;104082;279;96642;-56
2023/07/28 00:52:20;;;;;;;;;;;;;;;15.27;73.96;99582.05;104490;279;96874;-55
2023/07/28 00:54:52;;;;;;;;;;;;;;;15.32;73.97;99579.60;104053;279;121388;-55
2023/07/28 00:57:24;;;;;;;;;;;;;;;15.38;73.87;99573.73;104465;279;105997;-55
2023/07/28 00:59:57;;;;;;;;;;;;;;;15.45;73.35;99575.62;104057;279;113207;-58
2023/07/28 01:02:29;;;;;;;;;;;;;;;15.50;73.31;99571.18;104056;279;94794;-58
2023/07/28 01:05:01;;;;;;;;;;;;;;;15.54;73.09;99568.25;104099;279;97345;-53
2023/07/28 01:07:38;;;;;;;;;;;;;;;15.57;73.00;99562.76;104088;279;122206;-53
2023/07/28 01:10:13;;;;;;;;;;;;;;;15.59;72.93;99562.96;104120;279;105649;-54
2023/07/28 01:12:46;;;;;;;;;;;;;;;15.59;72.99;99555.34;104510;279;114499;-55
2023/07/28 01:15:18;;;;;;;;;;;;;;;15.59;72.65;99555.20;104074;279;94046;-58
2023/07/28 01:17:51;;;;;;;;;;;;;;;15.60;72.28;99555.85;104083;279;97668;-58
2023/07/28 01:20:24;;;;;;;;;;;;;;;15.61;72.28;99555.07;104103;279;122508;-54
2023/07/28 01:23:07;;;;;;;;;;;;;;;15.62;72.12;99553.30;104084;279;105374;-55
2023/07/28 01:25:52;;;;;;;;;;;;;;;15.62;71.93;99552.10;104100;279;114889;-57
2023/07/28 01:28:24;;;;;;;;;;;;;;;15.62;72.06;99543.42;104074;279;94924;-58
2023/07/28 01:30:57;;;;;;;;;;;;;;;15.62;71.71;99541.41;104082;275;97080;-55
2023/07/28 01:33:30;;;;;;;;;;;;;;;15.62;71.85;99538.89;104071;279;121833;-55
2023/07/28 01:36:02;;;;;;;;;;;;;;;15.62;71.46;99534.95;104086;279;105126;-53
2023/07/28 01:38:34;;;;;;;;;;;;;;;15.63;71.47;99528.26;104097;279;112947;-54
2023/07/28 01:41:07;;;;;;;;;;;;;;;15.65;71.49;99528.03;104492;279;93854;-53
2023/07/28 01:43:39;;;;;;;;;;;;;;;15.65;71.73;99526.19;104094;279;97706;-55
2023/07/28 01:46:11;;;;;;;;;;;;;;;15.65;71.54;99525.14;104093;279;121654;-54
2023/07/28 01:48:44;;;;;;;;;;;;;;;15.64;71.43;99525.05;104093;279;105865;-56
2023/07/28 01:51:16;;;;;;;;;;;;;;;15.65;71.63;99527.86;104483;279;114657;-56
2023/07/28 01:53:48;;;;;;;;;;;;;;;15.62;71.59;99523.72;104088;279;93168;-54
2023/07/28 01:56:20;;;;;;;;;;;;;;;15.62;71.70;99517.08;104099;279;97173;-54
2023/07/28 01:58:52;;;;;;;;;;;;;;;15.62;71.52;99519.74;104121;279;120949;-53
2023/07/28 02:01:24;;;;;;;;;;;;;;;15.63;71.40;99521.66;104066;278;104772;-53
2023/07/28 02:03:57;;;;;;;;;;;;;;;15.63;71.37;99522.15;104505;279;114667;-57
2023/07/28 02:06:29;;;;;;;;;;;;;;;15.64;71.21;99527.19;104476;279;95036;-58
2023/07/28 02:09:01;;;;;;;;;;;;;;;15.66;71.01;99526.73;104508;279;96218;-53
2023/07/28 02:11:33;;;;;;;;;;;;;;;15.69;71.03;99522.01;104064;279;120505;-53
2023/07/28 02:14:06;;;;;;;;;;;;;;;15.71;71.15;99523.30;104502;279;105390;-55
2023/07/28 02:16:38;;;;;;;;;;;;;;;15.74;71.05;99525.41;104465;279;114059;-54
2023/07/28 02:19:10;;;;;;;;;;;;;;;15.78;70.97;99521.34;104091;279;97393;-54
2023/07/28 02:21:42;;;;;;;;;;;;;;;15.85;70.94;99520.77;104091;279;97504;-54
2023/07/28 02:24:14;;;;;;;;;;;;;;;15.90;70.82;99517.97;104073;279;120169;-53
2023/07/28 02:26:47;;;;;;;;;;;;;;;15.93;70.87;99513.95;104054;279;104982;-52
2023/07/28 02:29:19;;;;;;;;;;;;;;;15.99;70.79;99521.34;104072;279;114487;-57
2023/07/28 02:31:52;;;;;;;;;;;;;;;16.02;70.75;99522.42;104053;279;94718;-57
2023/07/28 02:34:24;;;;;;;;;;;;;;;16.00;70.76;99515.27;104079;279;97383;-57
2023/07/28 02:36:56;;;;;;;;;;;;;;;16.00;70.83;99515.48;104093;279;122029;-57
2023/07/28 02:39:28;;;;;;;;;;;;;;;15.99;70.76;99517.00;104495;279;105770;-54
2023/07/28 02:42:00;;;;;;;;;;;;;;;15.99;70.76;99517.54;104481;279;113784;-54
2023/07/28 02:44:33;;;;;;;;;;;;;;;15.98;70.65;99522.82;104088;279;92809;-57
2023/07/28 02:47:05;;;;;;;;;;;;;;;15.98;70.74;99524.12;104102;279;95984;-57
2023/07/28 02:49:37;;;;;;;;;;;;;;;15.96;70.85;99529.58;104503;279;120547;-55
2023/07/28 02:52:10;;;;;;;;;;;;;;;15.92;70.93;99528.05;104057;279;104677;-55
2023/07/28 02:54:42;;;;;;;;;;;;;;;15.90;71.30;99525.39;104131;279;113202;-57
2023/07/28 02:57:14;;;;;;;;;;;;;;;15.85;71.60;99519.03;104487;279;94989;-56
2023/07/28 02:59:47;;;;;;;;;;;;;;;15.83;71.70;99513.83;104092;279;97197;-57
2023/07/28 03:02:19;;;;;;;;;;;;;;;15.81;71.92;99506.98;104091;279;122489;-57
2023/07/28 03:04:51;;;;;;;;;;;;;;;15.79;72.10;99508.46;104118;279;105022;-55
2023/07/28 03:07:24;;;;;;;;;;;;;;;15.77;72.31;99506.63;104491;279;115022;-54
2023/07/28 03:09:56;;;;;;;;;;;;;;;15.76;72.26;99508.79;104075;279;94628;-55
2023/07/28 03:12:28;;;;;;;;;;;;;;;15.75;72.54;99510.77;104106;279;96619;-54
2023/07/28 03:15:00;;;;;;;;;;;;;;;15.72;72.67;99511.22;104057;279;121778;-55
2023/07/28 03:17:33;;;;;;;;;;;;;;;15.69;72.99;99508.78;104089;279;105571;-55
2023/07/28 03:20:06;;;;;;;;;;;;;;;15.66;73.05;99497.20;104083;279;114684;-57
2023/07/28 03:22:38;;;;;;;;;;;;;;;15.67;73.14;99494.88;104072;279;94994;-57
2023/07/28 03:25:11;;;;;;;;;;;;;;;15.67;72.92;99487.17;104518;279;96381;-56
2023/07/28 03:27:44;;;;;;;;;;;;;;;15.65;73.26;99486.26;104491;279;120676;-57
2023/07/28 03:30:17;;;;;;;;;;;;;;;15.67;73.31;99484.00;104082;279;104391;-54
2023/07/28 03:32:49;;;;;;;;;;;;;;;15.69;73.28;99488.13;104476;279;114167;-55
2023/07/28 03:35:21;;;;;;;;;;;;;;;15.70;73.56;99487.55;104081;279;97649;-57
2023/07/28 03:37:54;;;;;;;;;;;;;;;15.74;73.52;99484.02;104093;279;96891;-57
2023/07/28 03:40:26;;;;;;;;;;;;;;;15.77;73.54;99478.42;104093;279;119683;-54
2023/07/28 03:43:00;;;;;;;;;;;;;;;15.82;73.48;99475.45;104101;279;103849;-55
2023/07/28 03:45:32;;;;;;;;;;;;;;;15.87;73.59;99477.34;104062;279;114457;-55
2023/07/28 03:48:04;;;;;;;;;;;;;;;15.93;73.41;99478.80;104066;279;96629;-55
2023/07/28 03:50:37;;;;;;;;;;;;;;;16.01;73.24;99479.96;104091;279;98679;-52
2023/07/28 03:53:09;;;;;;;;;;;;;;;16.05;73.11;99481.45;104082;279;122218;-52
2023/07/28 03:55:41;;;;;;;;;;;;;;;16.08;73.26;99483.96;104487;279;104684;-53
2023/07/28 03:58:13;;;;;;;;;;;;;;;16.14;73.18;99478.12;104081;279;113009;-53
2023/07/28 04:00:45;;;;;;;;;;;;;;;16.17;72.96;99477.20;104500;279;94601;-56
2023/07/28 04:03:17;;;;;;;;;;;;;;;16.23;72.80;99475.28;104073;279;97232;-56
2023/07/28 04:05:50;;;;;;;;;;;;;;;16.30;72.57;99470.00;104083;279;122148;-54
2023/07/28 04:08:22;;;;;;;;;;;;;;;16.34;72.49;99463.84;104077;279;104218;-54
2023/07/28 04:10:54;;;;;;;;;;;;;;;16.40;72.28;99463.39;104054;279;114451;-56
2023/07/28 04:13:26;;;;;;;;;;;;;;;16.46;72.03;99465.75;104105;279;94447;-56
2023/07/28 04:15:58;;;;;;;;;;;;;;;16.52;72.02;99472.45;104103;279;97342;-56
2023/07/28 04:18:32;;;;;;;;;;;;;;;16.58;71.86;99474.58;104053;279;122029;-56
2023/07/28 04:21:05;;;;;;;;;;;;;;;16.61;71.81;99477.41;104087;279;105697;-53
2023/07/28 04:23:37;;;;;;;;;;;;;;;16.65;71.74;99471.07;104078;279;114400;-56
2023/07/28 04:26:10;;;;;;;;;;;;;;;16.65;71.57;99472.33;104468;279;93424;-56
2023/07/28 04:28:42;;;;;;;;;;;;;;;16.66;71.51;99472.46;104502;279;97505;-56
2023/07/28 04:31:14;;;;;;;;;;;;;;;16.68;71.44;99467.69;104499;279;122251;-56
2023/07/28 04:33:46;;;;;;;;;;;;;;;16.67;71.41;99458.25;104095;279;105400;-53
2023/07/28 04:36:19;;;;;;;;;;;;;;;16.67;71.46;99458.14;104443;279;112548;-53
2023/07/28 04:38:51;;;;;;;;;;;;;;;16.68;71.17;99453.52;104062;279;94900;-56
2023/07/28 04:41:23;;;;;;;;;;;;;;;16.71;71.25;99450.05;104514;279;97362;-56
2023/07/28 04:43:55;;;;;;;;;;;;;;;16.73;71.30;99446.59;104491;279;122235;-53
2023/07/28 04:46:27;;;;;;;;;;;;;;;16.75;71.32;99443.14;104496;279;105259;-53
2023/07/28 04:48:59;;;;;;;;;;;;;;;16.78;71.21;99436.25;104047;279;113816;-56
2023/07/28 04:51:32;;;;;;;;;;;;;;;16.82;71.24;99431.21;104079;279;94134;-56
2023/07/28 04:54:04;;;;;;;;;;;;;;;16.86;71.23;99429.64;104062;279;98003;-56
2023/07/28 04:56:36;;;;;;;;;;;;;;;16.91;71.11;99428.99;104070;279;121882;-56
2023/07/28 04:59:08;;;;;;;;;;;;;;;16.95;70.99;99428.66;104089;279;103322;-56
2023/07/28 05:01:40;;;;;;;;;;;;;;;17.01;70.95;99426.60;104052;279;115282;-56
2023/07/28 05:04:13;;;;;;;;;;;;;;;17.07;70.98;99428.64;104081;279;96623;-53
2023/07/28 05:06:45;;;;;;;;;;;;;;;17.16;70.95;99427.59;104070;279;97248;-53
2023/07/28 05:09:17;;;;;;;;;;;;;;;17.26;70.87;99426.40;104072;279;121995;-58
2023/07/28 05:11:50;;;;;;;;;;;;;;;17.39;70.67;99425.83;104071;279;105701;-58
2023/07/28 05:14:22;;;;;;;;;;;;;;;17.52;70.33;99419.65;104075;279;114491;-55
2023/07/28 05:16:55;;;;;;;;;;;;;;;17.61;70.22;99420.18;104471;279;94134;-55
2023/07/28 05:19:27;;;;;;;;;;;;;;;17.67;69.99;99415.81;103554;279;600109;-57
2023/07/28 05:22:01;;;;;;;;;;;;;;;17.73;69.89;99417.18;104099;268;121418;-58
2023/07/28 05:24:33;;;;;;;;;;;;;;;17.76;69.90;99420.50;104077;279;105952;-55
2023/07/28 05:27:06;;;;;;;;;;;;;;;17.80;69.81;99419.92;104066;279;114812;-55
2023/07/28 05:29:38;;;;;;;;;;;;;;;17.84;69.81;99418.88;104050;279;93335;-55
2023/07/28 05:32:11;;;;;;;;;;;;;;;17.85;69.67;99418.88;104091;279;96564;-55
2023/07/28 05:34:46;;;;;;;;;;;;;;;17.90;69.34;99420.33;104070;279;121394;-56
2023/07/28 05:37:18;;;;;;;;;;;;;;;17.89;69.25;99422.23;104095;279;105632;-56
2023/07/28 05:39:50;;;;;;;;;;;;;;;17.84;69.10;99426.46;104073;279;112850;-56
2023/07/28 05:42:24;;;;;;;;;;;;;;;17.82;69.36;99422.63;104048;279;93787;-56
2023/07/28 05:44:56;;;;;;;;;;;;;;;17.85;69.14;99419.54;104518;279;96946;-58
2023/07/28 05:47:29;;;;;;;;;;;;;;;17.87;69.35;99417.96;104069;279;122402;-58
2023/07/28 05:50:01;;;;;;;;;;;;;;;17.89;69.16;99422.67;104534;279;106316;-53
2023/07/28 05:52:33;;;;;;;;;;;;;;;17.89;69.05;99417.59;103918;279;112967;-53
2023/07/28 05:55:06;;;;;;;;;;;;;;;17.91;69.17;99416.95;103941;279;93663;-58
2023/07/28 05:57:38;;;;;;;;;;;;;;;17.94;69.13;99418.57;104517;279;96245;-58
2023/07/28 06:00:12;;;;;;;;;;;;;;;18.03;69.15;99422.27;104504;279;120993;-58
2023/07/28 06:02:45;;;;;;;;;;;;;;;18.09;68.90;99416.77;104086;279;106065;-58
2023/07/28 06:05:17;;;;;;;;;;;;;;;18.18;68.87;99422.48;104083;279;112947;-56
2023/07/28 06:07:49;;;;;;;;;;;;;;;18.21;68.77;99420.95;104482;279;94324;-56
2023/07/28 06:10:21;;;;;;;;;;;;;;;18.28;68.49;99420.96;104097;279;97313;-56
2023/07/28 06:12:53;;;;;;;;;;;;;;;18.29;68.36;99422.93;104079;279;120864;-56
2023/07/28 06:15:26;;;;;;;;;;;;;;;18.31;68.21;99430.86;104099;279;106126;-56
2023/07/28 06:17:58;;;;;;;;;;;;;;;18.31;68.25;99429.55;104044;279;113048;-56
2023/07/28 06:20:30;;;;;;;;;;;;;;;18.37;68.24;99424.46;104496;283;95053;-53
2023/07/28 06:23:02;;;;;;;;;;;;;;;18.43;68.19;99418.81;104115;279;96236;-53
2023/07/28 06:25:34;;;;;;;;;;;;;;;18.46;68.16;99418.94;104090;279;120820;-56
2023/07/28 06:28:07;;;;;;;;;;;;;;;18.49;68.18;99420.02;104480;279;105795;-56
2023/07/28 06:30:39;;;;;;;;;;;;;;;18.50;67.82;99419.54;104484;279;114793;-58
2023/07/28 06:33:11;;;;;;;;;;;;;;;18.54;67.68;99417.81;104052;279;93684;-58
2023/07/28 06:35:43;;;;;;;;;;;;;;;18.54;67.71;99421.42;104113;279;97108;-55
2023/07/28 06:38:16;;;;;;;;;;;;;;;18.55;67.67;99424.83;104465;279;121923;-55
2023/07/28 06:40:48;;;;;;;;;;;;;;;18.61;67.54;99423.88;104067;279;106424;-56
2023/07/28 06:43:20;;;;;;;;;;;;;;;18.66;67.28;99422.20;104067;279;113084;-56
2023/07/28 06:45:55;;;;;;;;;;;;;;;18.72;67.41;99418.40;104074;279;94403;-56
2023/07/28 06:48:29;;;;;;;;;;;;;;;18.78;67.18;99416.46;103866;279;98410;-56
2023/07/28 06:51:02;;;;;;;;;;;;;;;18.81;66.88;99407.11;104103;279;122045;-58
2023/07/28 06:53:35;;;;;;;;;;;;;;;18.89;66.84;99403.81;104522;279;105188;-65
2023/07/28 06:56:07;;;;;;;;;;;;;;;18.91;66.83;99407.00;103835;279;114853;-59
2023/07/28 06:58:39;;;;;;;;;;;;;;;18.91;66.85;99403.27;104083;279;93724;-57
2023/07/28 07:01:12;;;;;;;;;;;;;;;18.88;66.76;99400.14;104104;279;97709;-58
2023/07/28 07:03:44;;;;;;;;;;;;;;;18.83;66.80;99407.25;104071;279;121671;-55
2023/07/28 07:06:17;;;;;;;;;;;;;;;18.75;66.94;99410.94;104102;279;105207;-55
2023/07/28 07:08:49;;;;;;;;;;;;;;;18.67;67.32;99411.92;104059;279;114583;-55
2023/07/28 07:11:21;;;;;;;;;;;;;;;18.55;67.66;99416.13;104089;279;93478;-63
2023/07/28 07:13:53;;;;;;;;;;;;;;;18.41;68.53;99425.52;104112;279;96747;-58
2023/07/28 07:16:26;;;;;;;;;;;;;;;18.27;69.29;99434.45;104092;279;119644;-58
2023/07/28 07:18:59;;;;;;;;;;;;;;;18.10;69.94;99437.56;103829;281;105308;-55
2023/07/28 07:21:31;;;;;;;;;;;;;;;17.96;70.61;99437.94;104058;279;113502;-56
2023/07/28 07:24:05;;;;;;;;;;;;;;;17.82;71.08;99439.39;104072;279;96768;-54
2023/07/28 07:26:37;;;;;;;;;;;;;;;17.66;72.05;99441.16;104099;279;96330;-54
2023/07/28 07:29:10;;;;;;;;;;;;;;;17.61;72.92;99435.48;104508;279;120859;-55
2023/07/28 07:31:42;;;;;;;;;;;;;;;17.62;73.17;99429.16;104086;275;105330;-55
2023/07/28 07:34:15;;;;;;;;;;;;;;;17.59;73.47;99424.97;104060;279;112219;-54
2023/07/28 07:36:48;;;;;;;;;;;;;;;17.62;73.92;99423.21;104068;279;96615;-54
2023/07/28 07:39:20;;;;;;;;;;;;;;;17.67;74.27;99417.89;104092;279;96979;-57
2023/07/28 07:41:52;;;;;;;;;;;;;;;17.75;74.41;99423.11;104114;279;120785;-58
2023/07/28 07:44:25;;;;;;;;;;;;;;;17.82;74.88;99427.86;104041;279;105559;-58
2023/07/28 07:46:57;;;;;;;;;;;;;;;17.85;74.69;99422.87;104045;279;114424;-58
2023/07/28 07:49:29;;;;;;;;;;;;;;;17.87;74.87;99424.69;104079;279;97425;-56
2023/07/28 07:52:02;;;;;;;;;;;;;;;17.87;75.05;99422.05;104489;279;97518;-56
2023/07/28 07:54:35;;;;;;;;;;;;;;;17.91;75.23;99420.17;104077;279;121873;-57
2023/07/28 07:57:08;;;;;;;;;;;;;;;18.05;75.23;99413.46;104101;279;105760;-58
2023/07/28 07:59:40;;;;;;;;;;;;;;;18.08;75.22;99415.06;104523;279;115504;-54
2023/07/28 08:02:12;;;;;;;;;;;;;;;18.02;75.50;99422.73;104062;279;95565;-53
2023/07/28 08:04:45;;;;;;;;;;;;;;;18.04;75.50;99424.45;104090;279;97958;-56
2023/07/28 08:07:18;;;;;;;;;;;;;;;18.05;75.67;99426.80;103843;281;121213;-56
2023/07/28 08:09:51;;;;;;;;;;;;;;;18.02;75.72;99425.58;104091;279;102831;-57
2023/07/28 08:12:23;;;;;;;;;;;;;;;17.97;75.94;99426.09;104062;279;113197;-57
2023/07/28 08:14:56;;;;;;;;;;;;;;;17.90;76.31;99428.15;104077;279;93111;-55
2023/07/28 08:17:28;;;;;;;;;;;;;;;17.92;76.57;99423.56;104485;279;97460;-56
2023/07/28 08:20:00;;;;;;;;;;;;;;;17.97;76.65;99423.40;104114;279;119328;-55
2023/07/28 08:22:33;;;;;;;;;;;;;;;17.96;76.69;99420.23;104061;279;106336;-55
2023/07/28 08:25:06;;;;;;;;;;;;;;;17.97;76.85;99417.13;104461;279;112770;-57
2023/07/28 08:27:38;;;;;;;;;;;;;;;18.16;77.32;99417.36;104061;279;95785;-57
2023/07/28 08:30:12;;;;;;;;;;;;;;;18.46;77.36;99419.72;104489;279;96947;-57
2023/07/28 08:32:44;;;;;;;;;;;;;;;18.68;77.57;99418.71;104467;279;121769;-57
2023/07/28 08:35:17;;;;;;;;;;;;;;;18.84;77.59;99410.64;104087;279;104201;-57
2023/07/28 08:37:50;;;;;;;;;;;;;;;19.05;77.54;99410.99;104471;283;113732;-57
2023/07/28 08:40:24;;;;;;;;;;;;;;;19.18;76.79;99412.79;103821;280;96605;-57
2023/07/28 08:42:56;;;;;;;;;;;;;;;19.13;76.73;99415.13;104063;279;96254;-57
2023/07/28 08:45:28;;;;;;;;;;;;;;;18.99;76.64;99418.30;104504;279;120554;-55
2023/07/28 08:48:01;;;;;;;;;;;;;;;18.81;76.50;99421.30;104080;279;105002;-55
2023/07/28 08:50:33;;;;;;;;;;;;;;;18.69;76.57;99416.52;104106;279;114125;-53
2023/07/28 08:53:05;;;;;;;;;;;;;;;18.43;76.66;99413.40;104059;279;94283;-53
2023/07/28 08:55:37;;;;;;;;;;;;;;;18.28;77.12;99408.22;104514;279;96704;-55
2023/07/28 08:58:21;;;;;;;;;;;;;;;18.23;77.21;99408.78;103809;281;122725;-55
2023/07/28 09:00:54;;;;;;;;;;;;;;;18.22;77.31;99407.79;104074;279;103843;-54
2023/07/28 09:03:27;;;;;;;;;;;;;;;18.24;77.53;99403.42;104061;279;114659;-54
2023/07/28 09:06:03;;;;;;;;;;;;;;;18.31;77.59;99399.77;104042;279;94702;-57
2023/07/28 09:08:36;;;;;;;;;;;;;;;18.39;77.74;99403.14;104081;279;97713;-55
2023/07/28 09:11:08;;;;;;;;;;;;;;;18.46;77.95;99398.60;104070;279;121785;-55
2023/07/28 09:13:42;;;;;;;;;;;;;;;18.62;77.86;99392.80;104082;279;105002;-55
2023/07/28 09:16:21;;;;;;;;;;;;;;;18.69;77.62;99405.86;104019;279;113580;-54
2023/07/28 09:19:04;;;;;;;;;;;;;;;18.65;78.14;99402.73;104442;279;97079;-57
2023/07/28 09:21:40;;;;;;;;;;;;;;;18.69;78.19;99394.91;104472;283;97079;-57
2023/07/28 09:24:13;;;;;;;;;;;;;;;18.73;78.18;99394.77;104083;267;121257;-53
2023/07/28 09:26:47;;;;;;;;;;;;;;;18.76;78.07;99395.71;104083;279;106050;-53
2023/07/28 09:29:21;;;;;;;;;;;;;;;18.82;78.07;99393.71;103917;280;114640;-53
2023/07/28 09:31:54;;;;;;;;;;;;;;;18.95;78.03;99391.73;103785;281;96649;-53
2023/07/28 09:34:29;;;;;;;;;;;;;;;19.00;77.92;99389.24;104092;279;97627;-53
2023/07/28 09:37:06;;;;;;;;;;;;;;;19.04;78.04;99385.59;104495;279;120447;-53
2023/07/28 09:39:41;;;;;;;;;;;;;;;19.15;78.09;99382.39;104517;279;106372;-57
2023/07/28 09:42:14;;;;;;;;;;;;;;;19.42;78.21;99381.48;104085;279;114814;-57
2023/07/28 09:44:47;;;;;;;;;;;;;;;19.70;77.89;99376.52;104080;279;95207;-57
2023/07/28 09:47:19;;;;;;;;;;;;;;;19.89;77.98;99376.86;104123;279;96942;-57
2023/07/28 09:49:53;;;;;;;;;;;;;;;19.91;77.68;99375.48;103854;279;121224;-57
2023/07/28 09:52:26;;;;;;;;;;;;;;;19.86;77.59;99373.91;104093;279;104441;-57
2023/07/28 09:55:00;;;;;;;;;;;;;;;19.82;77.29;99374.78;104498;279;114980;-54
2023/07/28 09:57:34;;;;;;;;;;;;;;;19.84;77.32;99377.30;104098;279;94851;-54
2023/07/28 10:00:09;;;;;;;;;;;;;;;19.85;77.43;99370.88;104138;279;97355;-56
2023/07/28 10:02:42;;;;;;;;;;;;;;;19.86;77.39;99371.65;104076;279;121938;-56
2023/07/28 10:05:15;;;;;;;;;;;;;;;19.81;77.31;99373.58;104075;279;106425;-53
2023/07/28 10:07:51;;;;;;;;;;;;;;;19.77;77.38;99371.11;104469;279;114902;-53
2023/07/28 10:10:24;;;;;;;;;;;;;;;19.74;77.38;99371.48;104057;279;96355;-57
2023/07/28 10:12:58;;;;;;;;;;;;;;;19.68;77.50;99370.05;104062;279;98483;-57
2023/07/28 10:15:34;;;;;;;;;;;;;;;19.63;77.58;99367.54;104479;279;121772;-54
2023/07/28 10:18:08;;;;;;;;;;;;;;;19.59;77.92;99371.42;104096;279;105415;-54
2023/07/28 10:20:43;;;;;;;;;;;;;;;19.57;78.29;99368.09;104074;279;113926;-55
2023/07/28 10:23:17;;;;;;;;;;;;;;;19.55;78.31;99370.77;104057;279;95979;-55
2023/07/28 10:25:56;;;;;;;;;;;;;;;19.50;78.29;99374.48;104069;279;96621;-55
2023/07/28 10:28:31;;;;;;;;;;;;;;;19.46;78.30;99371.91;104092;279;121122;-55
2023/07/28 10:31:05;;;;;;;;;;;;;;;19.44;78.67;99365.61;103950;280;105730;-54
2023/07/28 10:33:39;;;;;;;;;;;;;;;19.45;78.66;99363.96;104072;279;113647;-54
2023/07/28 10:36:16;;;;;;;;;;;;;;;19.52;78.82;99365.06;104075;279;95909;-53
2023/07/28 10:39:00;;;;;;;;;;;;;;;19.51;79.04;99361.13;104466;279;96871;-55
2023/07/28 10:41:36;;;;;;;;;;;;;;;19.54;78.85;99359.31;104085;279;119421;-55
2023/07/28 10:44:08;;;;;;;;;;;;;;;19.53;78.64;99360.64;104052;279;105712;-57
2023/07/28 10:46:41;;;;;;;;;;;;;;;19.51;78.83;99356.13;104078;279;113056;-54
2023/07/28 10:49:17;;;;;;;;;;;;;;;19.45;79.02;99356.07;104481;279;94594;-58
2023/07/28 10:51:50;;;;;;;;;;;;;;;19.44;79.05;99348.67;104088;279;96787;-58
2023/07/28 10:54:23;;;;;;;;;;;;;;;19.44;79.34;99351.36;104500;279;123223;-54
2023/07/28 10:56:56;;;;;;;;;;;;;;;19.47;79.24;99347.59;104500;279;104762;-53
2023/07/28 10:59:28;;;;;;;;;;;;;;;19.53;79.34;99346.33;104080;279;114203;-55
2023/07/28 11:02:04;;;;;;;;;;;;;;;19.60;79.13;99352.64;104063;279;94148;-56
2023/07/28 11:04:36;;;;;;;;;;;;;;;19.63;79.39;99350.28;104089;279;97796;-57
2023/07/28 11:07:09;;;;;;;;;;;;;;;19.59;79.67;99350.77;104070;279;121960;-57
2023/07/28 11:09:41;;;;;;;;;;;;;;;19.57;79.47;99353.96;104118;279;104802;-54
2023/07/28 11:12:14;;;;;;;;;;;;;;;19.52;79.59;99354.11;104096;279;112803;-53
2023/07/28 11:14:46;;;;;;;;;;;;;;;19.51;79.73;99346.49;104083;279;95327;-57
2023/07/28 11:17:18;;;;;;;;;;;;;;;19.48;79.67;99347.97;104109;279;96789;-57
2023/07/28 11:19:51;;;;;;;;;;;;;;;19.44;79.81;99344.84;104069;279;121312;-54
2023/07/28 11:22:23;;;;;;;;;;;;;;;19.51;79.87;99340.29;104076;279;104951;-55
2023/07/28 11:24:56;;;;;;;;;;;;;;;19.71;80.01;99336.69;104064;279;113361;-57
2023/07/28 11:27:28;;;;;;;;;;;;;;;20.05;80.25;99335.98;104055;279;96672;-57
2023/07/28 11:30:03;;;;;;;;;;;;;;;20.43;80.25;99332.41;104082;279;95866;-54
2023/07/28 11:32:37;;;;;;;;;;;;;;;20.62;79.95;99330.60;103934;280;121475;-55
2023/07/28 11:35:11;;;;;;;;;;;;;;;20.72;79.39;99327.93;104478;279;104220;-54
2023/07/28 11:37:45;;;;;;;;;;;;;;;20.94;79.14;99324.19;104075;279;112573;-54
2023/07/28 11:40:18;;;;;;;;;;;;;;;21.08;78.86;99319.74;104068;283;96579;-57
2023/07/28 11:42:53;;;;;;;;;;;;;;;20.99;78.35;99318.50;104079;279;97948;-57
2023/07/28 11:45:25;;;;;;;;;;;;;;;20.89;77.98;99319.05;104084;279;120684;-55
2023/07/28 11:48:02;;;;;;;;;;;;;;;20.84;78.06;99324.52;104494;279;105556;-56
2023/07/28 11:50:39;;;;;;;;;;;;;;;20.87;78.12;99315.10;104115;279;113942;-53
2023/07/28 11:53:12;;;;;;;;;;;;;;;21.08;78.37;99313.90;104065;279;94459;-53
2023/07/28 11:55:44;;;;;;;;;;;;;;;21.52;78.57;99305.79;104087;279;97712;-56
2023/07/28 11:58:17;;;;;;;;;;;;;;;22.04;78.34;99305.45;104042;279;121630;-55
2023/07/28 12:00:49;;;;;;;;;;;;;;;22.41;78.09;99300.66;104090;279;106504;-55
2023/07/28 12:03:21;;;;;;;;;;;;;;;22.58;77.50;99301.16;104467;279;115615;-55
2023/07/28 12:09:11;;;;;;;;;;;;;;;22.84;76.26;99305.80;104083;277;97374;-56
2023/07/28 12:11:47;;;;;;;;;;;;;;;22.98;76.13;99300.15;104301;277;120494;-57
2023/07/28 12:14:30;;;;;;;;;;;;;;;23.00;75.33;99300.13;104287;277;105474;-57
2023/07/28 12:17:03;;;;;;;;;;;;;;;22.95;75.07;99299.20;104743;277;114811;-58
2023/07/28 12:19:41;;;;;;;;;;;;;;;22.99;74.77;99300.04;104242;277;94823;-58
2023/07/28 12:22:13;;;;;;;;;;;;;;;23.00;74.42;99301.73;104279;277;97935;-55
2023/07/28 12:24:46;;;;;;;;;;;;;;;23.01;74.23;99302.10;104297;277;121156;-56
2023/07/28 12:27:20;;;;;;;;;;;;;;;23.00;73.57;99299.80;104291;277;106115;-55
2023/07/28 12:29:52;;;;;;;;;;;;;;;22.99;73.31;99299.48;104304;277;115012;-55
2023/07/28 12:32:24;;;;;;;;;;;;;;;22.91;72.76;99297.83;104300;277;95038;-53
2023/07/28 12:34:57;;;;;;;;;;;;;;;22.84;72.36;99297.61;104314;277;96328;-53
2023/07/28 12:37:29;;;;;;;;;;;;;;;22.89;72.39;99302.31;104315;277;122056;-58
2023/07/28 12:40:02;;;;;;;;;;;;;;;22.98;72.24;99302.48;104784;277;104541;-58
2023/07/28 12:42:34;;;;;;;;;;;;;;;23.11;72.17;99308.52;104304;277;114255;-56
2023/07/28 12:45:08;;;;;;;;;;;;;;;23.23;71.85;99314.73;104310;277;94009;-56
2023/07/28 12:47:40;;;;;;;;;;;;;;;23.22;71.19;99319.86;104307;277;97931;-56
2023/07/28 12:50:13;;;;;;;;;;;;;;;22.99;70.87;99324.88;104756;277;121660;-56
2023/07/28 12:52:45;;;;;;;;;;;;;;;22.76;70.77;99328.20;104316;277;106618;-55
2023/07/28 12:55:18;;;;;;;;;;;;;;;22.60;70.66;99330.31;104295;277;113668;-55
2023/07/28 12:57:50;;;;;;;;;;;;;;;22.50;70.89;99327.02;104748;277;95060;-55
2023/07/28 13:00:22;;;;;;;;;;;;;;;22.47;70.77;99331.46;104729;277;96848;-55
2023/07/28 13:02:54;;;;;;;;;;;;;;;22.31;70.87;99335.10;104702;277;120932;-54
2023/07/28 13:05:26;;;;;;;;;;;;;;;22.19;70.98;99338.27;104304;277;105054;-54
2023/07/28 13:07:58;;;;;;;;;;;;;;;22.11;71.10;99344.23;104277;277;114267;-56
2023/07/28 13:10:32;;;;;;;;;;;;;;;21.97;71.19;99349.10;104292;277;94499;-56
2023/07/28 13:13:04;;;;;;;;;;;;;;;21.83;71.55;99342.87;104317;277;97344;-56